aviador You're here:

KAKH Decoded Metar

GASTONIA in NC, USA
Report Time2017-12-16 09:54:00
UTC Time2017-12-16 11:00:38
Flight Rules vfr VFR
WindCalm
Visibility9999 m
Phenomena:N/A
Clouds:N/A
Expected CloudBase > 800 ft AGL from Temp-Dew spread
CeilingNone
Temp-4°C (ISA -17)
Dew Point-6°C (86% RH)
AAT-6.7°C
QNH1022 hPa
Density Alt-1,598 ft
Elevation797 ft
Report Wrong Elevation
Raw Report
KAKH 160954Z AUTO 00000KT 8SM CLR M04/M06 A3018 RMK AO2 SLP227
T10391056=

Extra information for KAKH:More info

Metar Taf Metar & Taf Last 4 Metars F.Rules Stats Wind Profile Meteogram Temp Stats Airport Information Weather charts Add Link Nearby VenuesMetar ALERT Operation Metar Decoded Social comments

AIRNAV info for KAKH